Mattice, Canada
Current Conditions -  °F | °C
As of 2:00 AM on Saturday 25 Oct 2014 (Local Time) from CYYU Reporting Station
Light Rain Light Rain  
Wind Chill: 41°   Ceiling: 3000
Heat Index: 46°   Visibility: 12mi
Dew Point: 45°   Wind: 10mph
Humidity: 93%   Direction: 240°WSW
Pressure: 29.56"   Gusts: 21mph
Location:  49.61°N, 83.26°W
Report Text: CYYU 250600Z 24009G18KT 12SM -RA OVC030 08/07 A2956 RMK SC8 SLP018
Loading
Personal Weather Stations






























Interactive Weather Map
Tropical Storm Tracking
New forecast layout! Learn more

10-Day Weather Forecast

Advertisements
Track Severe Weather on mobile